JBU2145 KATL-KLGA

Flight info

Callsign JBU2145
Flight time 1h 35m
Altitude 35000
Route JACCC2 KELLN BYJAC Q60 HURTS PROUD2
Aircraft A321/M-SDE3FGHIRWY/LB1

Departure

Time 2026-05-08 01:44
Airport Hartsfield Jackson Atlanta International Airport (KATL)

Arrival

Time 2026-05-08 03:19
Airport LaGuardia Airport (KLGA)
Time Latitude Longitude Altitude Speed Heading
2026-05-08 01:22 33.63942 -84.42641 1007 ft 0 kts 90°
2026-05-08 01:32 33.63942 -84.42652 1006 ft 3 kts 90°
2026-05-08 01:32 33.63942 -84.42674 1006 ft 3 kts 90°
2026-05-08 01:33 33.63942 -84.42697 1006 ft 3 kts 90°
2026-05-08 01:33 33.63948 -84.42718 1006 ft 3 kts 149°
2026-05-08 01:33 33.63961 -84.42723 1006 ft 0 kts 182°
2026-05-08 01:36 33.63960 -84.42723 1006 ft 1 kts 181°
2026-05-08 01:37 33.63946 -84.42723 1006 ft 4 kts 180°
2026-05-08 01:37 33.63908 -84.42726 1006 ft 7 kts 186°
2026-05-08 01:37 33.63840 -84.42730 1006 ft 12 kts 180°
2026-05-08 01:37 33.63772 -84.42729 1006 ft 0 kts 179°
2026-05-08 01:39 33.63765 -84.42729 1006 ft 3 kts 179°
2026-05-08 01:39 33.63718 -84.42729 1006 ft 10 kts 180°
2026-05-08 01:39 33.63658 -84.42665 1007 ft 17 kts 98°
2026-05-08 01:39 33.63655 -84.42518 1007 ft 18 kts 90°
2026-05-08 01:40 33.63654 -84.42351 1007 ft 21 kts 90°
2026-05-08 01:40 33.63656 -84.42175 1007 ft 21 kts 90°
2026-05-08 01:40 33.63656 -84.41995 1006 ft 22 kts 90°
2026-05-08 01:40 33.63657 -84.41809 1006 ft 23 kts 90°
2026-05-08 01:41 33.63655 -84.41618 1006 ft 23 kts 90°
2026-05-08 01:41 33.63654 -84.41433 1006 ft 21 kts 90°
2026-05-08 01:41 33.63656 -84.41258 1006 ft 21 kts 90°
2026-05-08 01:41 33.63656 -84.41079 1006 ft 22 kts 90°
2026-05-08 01:42 33.63651 -84.40939 1006 ft 11 kts 107°
2026-05-08 01:42 33.63584 -84.40909 1006 ft 11 kts 179°
2026-05-08 01:42 33.63547 -84.40910 1007 ft 6 kts 181°
2026-05-08 01:42 33.63481 -84.40916 1007 ft 10 kts 205°
2026-05-08 01:43 33.63470 -84.41001 1007 ft 13 kts 271°
2026-05-08 01:43 33.63472 -84.41320 1006 ft 72 kts 270°
2026-05-08 01:43 33.63472 -84.42192 1007 ft 133 kts 270°
2026-05-08 01:43 33.63470 -84.43501 1021 ft 178 kts 269°
2026-05-08 01:44 33.63443 -84.44980 1692 ft 173 kts 271°
2026-05-08 01:44 33.63409 -84.46409 2379 ft 173 kts 271°
2026-05-08 01:44 33.63233 -84.47908 2624 ft 195 kts 252°
2026-05-08 01:44 33.62540 -84.49430 2804 ft 219 kts 243°
2026-05-08 01:45 33.61727 -84.51104 2937 ft 247 kts 242°
2026-05-08 01:45 33.60820 -84.52946 3422 ft 260 kts 242°
2026-05-08 01:45 33.59889 -84.54784 4339 ft 255 kts 242°
2026-05-08 01:45 33.58997 -84.56562 5321 ft 248 kts 239°
2026-05-08 01:46 33.57793 -84.58024 6241 ft 253 kts 212°
2026-05-08 01:46 33.56038 -84.58462 6944 ft 270 kts 178°
2026-05-08 01:46 33.54312 -84.57545 7782 ft 283 kts 142°
2026-05-08 01:46 33.53240 -84.55482 8213 ft 307 kts 104°
2026-05-08 01:47 33.53237 -84.52907 8678 ft 316 kts 76°
2026-05-08 01:47 33.53719 -84.50281 9120 ft 329 kts 74°
2026-05-08 01:47 33.54254 -84.47593 9745 ft 333 kts 74°
2026-05-08 01:48 33.55552 -84.42116 10518 ft 360 kts 69°
2026-05-08 01:48 33.56369 -84.39180 10671 ft 382 kts 68°
2026-05-08 01:48 33.57250 -84.36080 10806 ft 403 kts 68°
2026-05-08 01:48 33.58167 -84.32819 11029 ft 419 kts 68°
2026-05-08 01:49 33.59091 -84.29458 11494 ft 426 kts 69°
2026-05-08 01:49 33.60009 -84.26041 12009 ft 433 kts 69°
2026-05-08 01:49 33.60929 -84.22575 12540 ft 439 kts 69°
2026-05-08 01:49 33.61842 -84.19109 13035 ft 445 kts 68°
2026-05-08 01:50 33.62778 -84.15552 13546 ft 450 kts 68°
2026-05-08 01:50 33.63729 -84.11949 14028 ft 455 kts 68°
2026-05-08 01:50 33.64690 -84.08307 14509 ft 460 kts 68°
2026-05-08 01:50 33.65660 -84.04634 15002 ft 464 kts 68°
2026-05-08 01:51 33.66642 -84.00919 15497 ft 469 kts 69°
2026-05-08 01:51 33.67630 -83.97177 15999 ft 473 kts 69°
2026-05-08 01:51 33.68627 -83.93401 16501 ft 477 kts 69°
2026-05-08 01:51 33.69631 -83.89586 16995 ft 481 kts 69°
2026-05-08 01:52 33.70642 -83.85746 17505 ft 485 kts 69°
2026-05-08 01:52 33.71661 -83.81872 18000 ft 489 kts 69°
2026-05-08 01:52 33.72688 -83.77959 18448 ft 493 kts 69°
2026-05-08 01:52 33.73720 -83.74012 18874 ft 497 kts 69°
2026-05-08 01:53 33.74757 -83.70041 19308 ft 500 kts 69°
2026-05-08 01:53 33.75907 -83.66098 19723 ft 500 kts 62°
2026-05-08 01:53 33.77471 -83.62390 20126 ft 496 kts 53°
2026-05-08 01:53 33.79332 -83.58891 20562 ft 498 kts 50°
2026-05-08 01:54 33.81219 -83.55383 20898 ft 502 kts 50°
2026-05-08 01:54 33.83120 -83.51847 21250 ft 505 kts 50°
2026-05-08 01:54 33.85031 -83.48285 21617 ft 508 kts 50°
2026-05-08 01:54 33.86951 -83.44702 21968 ft 511 kts 50°
2026-05-08 01:55 33.88879 -83.41092 22299 ft 514 kts 50°
2026-05-08 01:55 33.90818 -83.37460 22660 ft 517 kts 50°
2026-05-08 01:55 33.92761 -83.33814 23014 ft 519 kts 50°
2026-05-08 01:55 33.94714 -83.30141 23364 ft 522 kts 50°
2026-05-08 01:56 33.96677 -83.26444 23680 ft 525 kts 50°
2026-05-08 01:56 33.98649 -83.22730 23972 ft 528 kts 50°
2026-05-08 01:56 34.00632 -83.18997 24265 ft 530 kts 50°
2026-05-08 01:56 34.02622 -83.15251 24600 ft 532 kts 50°
2026-05-08 01:57 34.04597 -83.11521 24855 ft 536 kts 50°
2026-05-08 01:57 34.06629 -83.07669 25113 ft 539 kts 51°
2026-05-08 01:57 34.08644 -83.03849 25411 ft 541 kts 51°
2026-05-08 01:57 34.10669 -83.00009 25702 ft 543 kts 51°
2026-05-08 01:58 34.12706 -82.96149 25985 ft 546 kts 51°
2026-05-08 01:58 34.14746 -82.92273 26264 ft 548 kts 51°
2026-05-08 01:58 34.16763 -82.88425 26541 ft 551 kts 51°
2026-05-08 01:58 34.18806 -82.84508 26823 ft 553 kts 51°
2026-05-08 01:59 34.20859 -82.80560 27105 ft 555 kts 51°
2026-05-08 01:59 34.22920 -82.76595 27389 ft 558 kts 51°
2026-05-08 01:59 34.24986 -82.72622 27668 ft 560 kts 51°
2026-05-08 01:59 34.27064 -82.68625 27964 ft 563 kts 51°
2026-05-08 02:00 34.29145 -82.64614 28280 ft 563 kts 51°
2026-05-08 02:00 34.31230 -82.60592 28614 ft 564 kts 51°
2026-05-08 02:00 34.33309 -82.56578 28976 ft 564 kts 51°
2026-05-08 02:00 34.35388 -82.52563 29334 ft 563 kts 51°
2026-05-08 02:01 34.37466 -82.48543 29709 ft 563 kts 51°
2026-05-08 02:01 34.39545 -82.44513 30084 ft 563 kts 51°
2026-05-08 02:01 34.41611 -82.40499 30406 ft 563 kts 51°
2026-05-08 02:01 34.43681 -82.36470 30737 ft 561 kts 51°
2026-05-08 02:02 34.45719 -82.32436 31047 ft 562 kts 53°
2026-05-08 02:02 34.47676 -82.28338 31359 ft 563 kts 54°
2026-05-08 02:02 34.49565 -82.24178 31713 ft 564 kts 55°
2026-05-08 02:02 34.51428 -82.19981 31924 ft 565 kts 53°
2026-05-08 02:03 34.53531 -82.15996 32183 ft 557 kts 45°
2026-05-08 02:03 34.55971 -82.12405 32472 ft 549 kts 39°
2026-05-08 02:03 34.58487 -82.08932 32779 ft 548 kts 39°
2026-05-08 02:03 34.60992 -82.05523 33075 ft 547 kts 39°
2026-05-08 02:04 34.63526 -82.02086 33384 ft 546 kts 39°
2026-05-08 02:04 34.66051 -81.98648 33694 ft 545 kts 39°
2026-05-08 02:04 34.68562 -81.95208 33988 ft 544 kts 39°
2026-05-08 02:04 34.71066 -81.91757 34246 ft 544 kts 39°
2026-05-08 02:05 34.73567 -81.88295 34516 ft 545 kts 39°
2026-05-08 02:05 34.76081 -81.84817 34635 ft 548 kts 39°
2026-05-08 02:05 34.78606 -81.81323 34781 ft 551 kts 39°
2026-05-08 02:05 34.81138 -81.77816 34932 ft 552 kts 39°
2026-05-08 02:06 34.86196 -81.70785 34977 ft 552 kts 39°
2026-05-08 02:06 34.91251 -81.63738 34951 ft 550 kts 39°
2026-05-08 02:07 34.96278 -81.56725 34992 ft 549 kts 39°
2026-05-08 02:07 35.01323 -81.49685 34953 ft 552 kts 39°
2026-05-08 02:08 35.06380 -81.42626 34949 ft 553 kts 39°
2026-05-08 02:08 35.11434 -81.35539 34957 ft 554 kts 39°
2026-05-08 02:09 35.16485 -81.28435 35015 ft 554 kts 39°
2026-05-08 02:09 35.21542 -81.21315 35044 ft 555 kts 39°
2026-05-08 02:10 35.26608 -81.14183 35029 ft 556 kts 39°
2026-05-08 02:10 35.31676 -81.07027 35013 ft 557 kts 39°
2026-05-08 02:11 35.36739 -80.99833 35006 ft 558 kts 39°
2026-05-08 02:11 35.40950 -80.93838 35019 ft 558 kts 39°
2026-05-08 02:12 35.46842 -80.85456 34982 ft 557 kts 39°
2026-05-08 02:12 35.51086 -80.79413 34995 ft 559 kts 39°
2026-05-08 02:13 35.56162 -80.72169 34995 ft 560 kts 39°
2026-05-08 02:13 35.61246 -80.64895 34987 ft 561 kts 39°
2026-05-08 02:14 35.66332 -80.57610 35018 ft 562 kts 39°
2026-05-08 02:14 35.71414 -80.50308 35027 ft 562 kts 39°
2026-05-08 02:15 35.76459 -80.43031 35031 ft 562 kts 39°
2026-05-08 02:15 35.81539 -80.35695 35029 ft 562 kts 39°
2026-05-08 02:16 35.86614 -80.28353 35002 ft 562 kts 39°
2026-05-08 02:16 35.91672 -80.21013 34961 ft 561 kts 39°
2026-05-08 02:17 35.96596 -80.13498 34961 ft 572 kts 48°
2026-05-08 02:17 36.00936 -80.05223 34988 ft 574 kts 49°
2026-05-08 02:18 36.05268 -79.96923 34995 ft 575 kts 49°
2026-05-08 02:18 36.09612 -79.88622 34972 ft 574 kts 47°
2026-05-08 02:19 36.14098 -79.80536 34961 ft 568 kts 45°
2026-05-08 02:19 36.18729 -79.72623 34955 ft 569 kts 44°
2026-05-08 02:20 36.23344 -79.64641 34966 ft 571 kts 45°
2026-05-08 02:20 36.27898 -79.56554 34979 ft 572 kts 46°
2026-05-08 02:21 36.32432 -79.48444 34951 ft 570 kts 46°
2026-05-08 02:21 36.36932 -79.40420 34949 ft 570 kts 45°
2026-05-08 02:22 36.41484 -79.32346 34958 ft 571 kts 45°
2026-05-08 02:22 36.46041 -79.24237 34976 ft 573 kts 46°
2026-05-08 02:23 36.50589 -79.16090 35039 ft 574 kts 46°
2026-05-08 02:23 36.55114 -79.07940 34961 ft 571 kts 46°
2026-05-08 02:24 36.59638 -78.99806 34943 ft 572 kts 46°
2026-05-08 02:24 36.64157 -78.91628 34946 ft 574 kts 46°
2026-05-08 02:25 36.68658 -78.83399 34969 ft 575 kts 46°
2026-05-08 02:25 36.72837 -78.74835 34950 ft 583 kts 54°
2026-05-08 02:26 36.76584 -78.65893 34932 ft 582 kts 55°
2026-05-08 02:26 36.80322 -78.56927 34953 ft 583 kts 55°
2026-05-08 02:27 36.84075 -78.47946 34972 ft 584 kts 54°
2026-05-08 02:27 36.87812 -78.39004 34982 ft 585 kts 55°
2026-05-08 02:28 36.91555 -78.29982 34984 ft 585 kts 54°
2026-05-08 02:28 36.95280 -78.20972 34942 ft 583 kts 55°
2026-05-08 02:29 36.99023 -78.11891 34961 ft 584 kts 55°
2026-05-08 02:29 37.02754 -78.02853 34970 ft 585 kts 55°
2026-05-08 02:30 37.06465 -77.93842 34945 ft 586 kts 55°
2026-05-08 02:30 37.10177 -77.84760 35013 ft 586 kts 55°
2026-05-08 02:31 37.13862 -77.75705 34954 ft 582 kts 55°
2026-05-08 02:31 37.17552 -77.66660 34969 ft 583 kts 55°
2026-05-08 02:32 37.21245 -77.57590 34944 ft 584 kts 56°
2026-05-08 02:32 37.24920 -77.48496 34979 ft 585 kts 56°
2026-05-08 02:33 37.28599 -77.39374 35052 ft 585 kts 56°
2026-05-08 02:33 37.32259 -77.30283 34955 ft 582 kts 56°
2026-05-08 02:34 37.35913 -77.21204 34938 ft 583 kts 56°
2026-05-08 02:34 37.39568 -77.12095 34967 ft 584 kts 56°
2026-05-08 02:35 37.43318 -77.03057 34975 ft 577 kts 49°
2026-05-08 02:35 37.45632 -76.99018 34980 ft 563 kts 39°
2026-05-08 02:35 37.48288 -76.95481 35001 ft 549 kts 30°
2026-05-08 02:36 37.51193 -76.92501 34943 ft 529 kts 21°
2026-05-08 02:36 37.54263 -76.90098 34942 ft 512 kts 13°
2026-05-08 02:36 37.60521 -76.85982 34937 ft 511 kts 13°
2026-05-08 02:37 37.66827 -76.81789 34950 ft 513 kts 13°
2026-05-08 02:37 37.73147 -76.77562 34963 ft 514 kts 13°
2026-05-08 02:38 37.79477 -76.73313 34973 ft 515 kts 13°
2026-05-08 02:38 37.85809 -76.69056 34975 ft 515 kts 13°
2026-05-08 02:39 37.92156 -76.64875 34952 ft 511 kts 12°
2026-05-08 02:39 37.98496 -76.60899 34940 ft 507 kts 11°
2026-05-08 02:40 38.04840 -76.56965 34948 ft 508 kts 12°
2026-05-08 02:40 38.11187 -76.52943 34958 ft 511 kts 12°
2026-05-08 02:41 38.17505 -76.48876 34923 ft 507 kts 13°
2026-05-08 02:41 38.23806 -76.44839 34939 ft 508 kts 13°
2026-05-08 02:42 38.30066 -76.40537 34945 ft 524 kts 22°
2026-05-08 02:42 38.35915 -76.34923 35005 ft 531 kts 26°
2026-05-08 02:43 38.41761 -76.29167 34990 ft 531 kts 26°
2026-05-08 02:43 38.47610 -76.23417 34985 ft 530 kts 26°
2026-05-08 02:44 38.53465 -76.17681 35037 ft 530 kts 26°
2026-05-08 02:44 38.59288 -76.11954 34925 ft 526 kts 27°
2026-05-08 02:45 38.65101 -76.06257 34938 ft 526 kts 26°
2026-05-08 02:45 38.70996 -76.00737 34605 ft 524 kts 24°
2026-05-08 02:46 38.73961 -75.98020 34373 ft 525 kts 24°
2026-05-08 02:46 38.76959 -75.95281 33224 ft 536 kts 24°
2026-05-08 02:46 38.80010 -75.92484 32275 ft 540 kts 25°
2026-05-08 02:46 38.83060 -75.89646 31389 ft 541 kts 26°
2026-05-08 02:47 38.86102 -75.86776 30276 ft 544 kts 27°
2026-05-08 02:47 38.89127 -75.83896 29243 ft 541 kts 27°
2026-05-08 02:47 38.92153 -75.81011 27901 ft 543 kts 28°
2026-05-08 02:47 38.95247 -75.78232 26486 ft 538 kts 21°
2026-05-08 02:48 38.98626 -75.76360 25121 ft 521 kts
2026-05-08 02:48 39.02067 -75.74900 24308 ft 519 kts 14°
2026-05-08 02:48 39.05362 -75.73266 23922 ft 494 kts
2026-05-08 02:48 39.08609 -75.72095 23548 ft 475 kts
2026-05-08 02:49 39.11726 -75.70996 23407 ft 454 kts
2026-05-08 02:49 39.14705 -75.69923 23292 ft 436 kts
2026-05-08 02:49 39.17565 -75.68866 23148 ft 420 kts
2026-05-08 02:49 39.20320 -75.67826 23004 ft 404 kts
2026-05-08 02:50 39.22970 -75.66803 22775 ft 392 kts
2026-05-08 02:50 39.25558 -75.65795 22336 ft 386 kts
2026-05-08 02:50 39.28114 -75.64803 21833 ft 381 kts
2026-05-08 02:50 39.30646 -75.63828 21319 ft 378 kts
2026-05-08 02:51 39.33158 -75.62870 20807 ft 375 kts
2026-05-08 02:51 39.35651 -75.61929 20321 ft 372 kts
2026-05-08 02:51 39.38129 -75.60997 19827 ft 370 kts
2026-05-08 02:51 39.40593 -75.60079 19320 ft 367 kts
2026-05-08 02:52 39.43047 -75.59175 18847 ft 365 kts
2026-05-08 02:52 39.45483 -75.58289 18380 ft 362 kts
2026-05-08 02:52 39.47873 -75.57424 17882 ft 361 kts
2026-05-08 02:52 39.50173 -75.56004 17377 ft 374 kts 30°
2026-05-08 02:53 39.52012 -75.53596 16876 ft 381 kts 52°
2026-05-08 02:53 39.53274 -75.50579 16391 ft 381 kts 63°
2026-05-08 02:53 39.54406 -75.47490 15918 ft 378 kts 63°
2026-05-08 02:53 39.55528 -75.44424 15540 ft 375 kts 63°
2026-05-08 02:54 39.56641 -75.41387 15183 ft 372 kts 63°
2026-05-08 02:54 39.57748 -75.38368 14837 ft 369 kts 63°
2026-05-08 02:54 39.58828 -75.35415 14949 ft 363 kts 63°
2026-05-08 02:54 39.59917 -75.32437 15007 ft 363 kts 63°
2026-05-08 02:55 39.60974 -75.29540 15007 ft 348 kts 63°
2026-05-08 02:55 39.62976 -75.24036 15004 ft 333 kts 63°
2026-05-08 02:55 39.63968 -75.21319 15006 ft 332 kts 63°
2026-05-08 02:56 39.64623 -75.19524 15007 ft 332 kts 63°
2026-05-08 02:56 39.65625 -75.16814 15006 ft 332 kts 60°
2026-05-08 02:56 39.66803 -75.14251 15005 ft 330 kts 51°
2026-05-08 02:56 39.68199 -75.11905 15006 ft 327 kts 44°
2026-05-08 02:57 39.69772 -75.09792 15012 ft 324 kts 36°
2026-05-08 02:57 39.72086 -75.07411 15010 ft 318 kts 26°
2026-05-08 02:57 39.73935 -75.05841 14997 ft 318 kts 26°
2026-05-08 02:57 39.75183 -75.04776 15001 ft 319 kts 26°
2026-05-08 02:58 39.77018 -75.03201 15010 ft 320 kts 26°
2026-05-08 02:58 39.78896 -75.01577 15010 ft 320 kts 26°
2026-05-08 02:58 39.80749 -74.99971 15014 ft 320 kts 26°
2026-05-08 02:58 39.82606 -74.98363 15013 ft 320 kts 26°
2026-05-08 02:59 39.84459 -74.96756 15013 ft 320 kts 26°
2026-05-08 02:59 39.86312 -74.95134 14972 ft 322 kts 27°
2026-05-08 02:59 39.88151 -74.93482 14718 ft 320 kts 28°
2026-05-08 02:59 39.89969 -74.91824 14476 ft 318 kts 28°
2026-05-08 03:00 39.91731 -74.90167 14259 ft 318 kts 33°
2026-05-08 03:00 39.93341 -74.88175 14028 ft 320 kts 43°
2026-05-08 03:00 39.94823 -74.86024 13798 ft 318 kts 43°
2026-05-08 03:00 39.96304 -74.83897 13541 ft 315 kts 43°
2026-05-08 03:01 39.97793 -74.81764 13272 ft 312 kts 43°
2026-05-08 03:01 39.99247 -74.79682 13002 ft 309 kts 42°
2026-05-08 03:01 40.00691 -74.77619 12663 ft 308 kts 42°
2026-05-08 03:01 40.02112 -74.75590 12425 ft 304 kts 42°
2026-05-08 03:02 40.03521 -74.73571 12187 ft 298 kts 42°
2026-05-08 03:02 40.04911 -74.71578 11933 ft 295 kts 42°
2026-05-08 03:02 40.06285 -74.69605 11672 ft 291 kts 42°
2026-05-08 03:02 40.07640 -74.67663 11406 ft 288 kts 42°
2026-05-08 03:03 40.08978 -74.65736 11138 ft 285 kts 42°
2026-05-08 03:03 40.10300 -74.63830 10899 ft 281 kts 42°
2026-05-08 03:03 40.11605 -74.61952 10650 ft 278 kts 42°
2026-05-08 03:03 40.12895 -74.60096 10403 ft 274 kts 42°
2026-05-08 03:04 40.14172 -74.58259 10148 ft 271 kts 42°
2026-05-08 03:04 40.15435 -74.56440 9908 ft 270 kts 42°
2026-05-08 03:04 40.16689 -74.54635 9673 ft 266 kts 42°
2026-05-08 03:04 40.17922 -74.52852 9383 ft 263 kts 42°
2026-05-08 03:05 40.19146 -74.51082 9079 ft 261 kts 43°
2026-05-08 03:05 40.20364 -74.49321 8772 ft 260 kts 41°
2026-05-08 03:05 40.21622 -74.47646 8461 ft 257 kts 39°
2026-05-08 03:05 40.22904 -74.46031 8169 ft 255 kts 39°
2026-05-08 03:06 40.24189 -74.44439 7858 ft 253 kts 39°
2026-05-08 03:06 40.25451 -74.42878 7565 ft 252 kts 39°
2026-05-08 03:06 40.26717 -74.41304 7255 ft 250 kts 40°
2026-05-08 03:06 40.27973 -74.39735 6961 ft 249 kts 40°
2026-05-08 03:07 40.29236 -74.38148 6637 ft 248 kts 41°
2026-05-08 03:07 40.30480 -74.36582 6324 ft 248 kts 41°
2026-05-08 03:07 40.31701 -74.35038 6025 ft 246 kts 42°
2026-05-08 03:07 40.32925 -74.33487 5711 ft 244 kts 42°
2026-05-08 03:08 40.34142 -74.31941 5404 ft 243 kts 42°
2026-05-08 03:08 40.35349 -74.30407 5096 ft 241 kts 42°
2026-05-08 03:08 40.36550 -74.28885 4775 ft 239 kts 42°
2026-05-08 03:08 40.37742 -74.27373 4445 ft 238 kts 42°
2026-05-08 03:09 40.38926 -74.25871 4160 ft 235 kts 43°
2026-05-08 03:09 40.40098 -74.24384 3847 ft 233 kts 43°
2026-05-08 03:09 40.41257 -74.22913 3540 ft 231 kts 43°
2026-05-08 03:09 40.42408 -74.21454 3254 ft 229 kts 43°
2026-05-08 03:10 40.43542 -74.20013 3045 ft 225 kts 43°
2026-05-08 03:10 40.44670 -74.18582 3011 ft 226 kts 43°
2026-05-08 03:10 40.45801 -74.17147 3013 ft 226 kts 43°
2026-05-08 03:10 40.46935 -74.15704 3012 ft 227 kts 44°
2026-05-08 03:11 40.48064 -74.14262 3012 ft 226 kts 44°
2026-05-08 03:11 40.49192 -74.12821 3006 ft 226 kts 44°
2026-05-08 03:11 40.50304 -74.11400 3023 ft 226 kts 44°
2026-05-08 03:11 40.51433 -74.09959 3017 ft 226 kts 43°
2026-05-08 03:12 40.52678 -74.08707 3014 ft 226 kts 32°
2026-05-08 03:12 40.54007 -74.07595 3017 ft 226 kts 32°
2026-05-08 03:12 40.55331 -74.06478 3013 ft 226 kts 33°
2026-05-08 03:12 40.56655 -74.05355 3027 ft 226 kts 33°
2026-05-08 03:13 40.57975 -74.04233 3023 ft 226 kts 33°
2026-05-08 03:13 40.59301 -74.03104 3030 ft 226 kts 33°
2026-05-08 03:13 40.60623 -74.01981 3027 ft 226 kts 33°
2026-05-08 03:13 40.61943 -74.00865 3023 ft 226 kts 33°
2026-05-08 03:14 40.63263 -73.99745 3027 ft 225 kts 33°
2026-05-08 03:14 40.64573 -73.98632 3023 ft 224 kts 33°
2026-05-08 03:14 40.65885 -73.97518 3053 ft 224 kts 32°
2026-05-08 03:14 40.67158 -73.96429 2977 ft 212 kts 32°
2026-05-08 03:15 40.68349 -73.95401 2879 ft 198 kts 33°
2026-05-08 03:15 40.69466 -73.94421 2821 ft 190 kts 36°
2026-05-08 03:15 40.70388 -73.93226 2629 ft 187 kts 46°
2026-05-08 03:15 40.71238 -73.92017 2380 ft 172 kts 46°
2026-05-08 03:16 40.71884 -73.90760 2159 ft 163 kts 65°
2026-05-08 03:16 40.72185 -73.89335 1922 ft 160 kts 76°
2026-05-08 03:16 40.72426 -73.87917 1704 ft 155 kts 76°
2026-05-08 03:16 40.72660 -73.86572 1462 ft 148 kts 75°
2026-05-08 03:17 40.72937 -73.85285 1252 ft 145 kts 63°
2026-05-08 03:17 40.73552 -73.84262 1041 ft 142 kts 37°
2026-05-08 03:17 40.74430 -73.83671 821 ft 143 kts 17°
2026-05-08 03:17 40.75411 -73.83532 622 ft 144 kts 353°
2026-05-08 03:18 40.76327 -73.84050 447 ft 147 kts 319°
2026-05-08 03:18 40.76929 -73.85140 198 ft 147 kts 302°
2026-05-08 03:18 40.77479 -73.86280 26 ft 143 kts 303°
2026-05-08 03:18 40.77899 -73.87160 18 ft 72 kts 302°
2026-05-08 03:19 40.78048 -73.87468 17 ft 26 kts 303°
2026-05-08 03:19 40.78055 -73.87586 18 ft 13 kts 247°
2026-05-08 03:19 40.78006 -73.87613 18 ft 8 kts 134°
2026-05-08 03:19 40.77967 -73.87535 18 ft 14 kts 122°
2026-05-08 03:20 40.77913 -73.87420 18 ft 15 kts 122°
2026-05-08 03:20 40.77845 -73.87394 18 ft 12 kts 193°
2026-05-08 03:20 40.77774 -73.87365 18 ft 11 kts 109°
2026-05-08 03:20 40.77763 -73.87253 18 ft 13 kts 102°
2026-05-08 03:21 40.77717 -73.87142 18 ft 15 kts 123°
2026-05-08 03:21 40.77659 -73.87026 18 ft 15 kts 123°
2026-05-08 03:21 40.77600 -73.87051 18 ft 13 kts 279°
2026-05-08 03:21 40.77619 -73.87097 18 ft 0 kts 301°